Time;durP1;ratioP1;P1;durP2;ratioP2;P2;SDS_P1;SDS_P2;PMS_P1;PMS_P2;Temp;Humidity;BMP_temperature;BMP_pressure;BME280_temperature;BME280_humidity;BME280_pressure;Samples;Min_cycle;Max_cycle;Signal;HPM_P1;HPM_P2
2023/03/08 08:13:12;;;;;;;;;0.67;0.67;;;;;11.53;74.71;98820.50;6091668;22;1445360;-70
2023/03/08 08:15:38;;;;;;;;;2.00;1.00;;;;;11.55;74.79;98822.25;6276865;22;45286;-70
2023/03/08 08:18:03;;;;;;;;;1.00;1.00;;;;;11.56;75.15;98818.69;6273071;22;45923;-70
2023/03/08 08:20:29;;;;;;;;;3.00;1.33;;;;;11.54;74.98;98804.63;6275878;22;45233;-73
2023/03/08 08:22:54;;;;;;;;;0.00;0.00;;;;;11.73;74.80;98822.91;6274501;22;45269;-72
2023/03/08 08:25:20;;;;;;;;;2.00;0.67;;;;;11.76;74.97;98829.06;6276981;22;45291;-72
2023/03/08 08:27:45;;;;;;;;;2.00;1.00;;;;;11.86;74.30;98820.13;6277100;22;45255;-72
2023/03/08 08:30:13;;;;;;;;;1.00;1.00;;;;;11.94;74.66;98821.81;6277059;22;45267;-74
2023/03/08 08:32:39;;;;;;;;;2.00;1.00;;;;;12.00;75.41;98827.03;6277035;22;45224;-73
2023/03/08 08:35:05;;;;;;;;;0.00;0.00;;;;;12.02;74.39;98823.47;6277301;22;45179;-74
2023/03/08 08:37:31;;;;;;;;;1.67;1.00;;;;;12.08;74.79;98826.03;6276956;22;45296;-73
2023/03/08 08:39:57;;;;;;;;;1.67;1.00;;;;;12.14;74.42;98829.50;6275361;22;45523;-73
2023/03/08 08:42:23;;;;;;;;;0.00;0.00;;;;;12.16;74.32;98827.69;6276403;22;45270;-74
2023/03/08 08:44:48;;;;;;;;;2.00;1.00;;;;;12.12;74.93;98828.63;6277385;22;45199;-74
2023/03/08 08:47:14;;;;;;;;;0.33;0.33;;;;;12.18;74.21;98855.88;6275793;22;45420;-72
2023/03/08 08:49:40;;;;;;;;;3.67;0.00;;;;;12.09;75.08;98826.91;6275383;22;45717;-74
2023/03/08 08:52:06;;;;;;;;;2.00;0.67;;;;;12.13;75.14;98840.97;6276571;22;45247;-73
2023/03/08 08:54:32;;;;;;;;;3.67;2.00;;;;;12.16;75.79;98872.72;6276894;22;45495;-73
2023/03/08 08:56:57;;;;;;;;;2.00;1.00;;;;;12.05;76.89;98862.28;6277211;22;45225;-73
2023/03/08 08:59:23;;;;;;;;;1.67;0.00;;;;;12.11;76.64;98866.63;6274642;22;45083;-73
2023/03/08 09:01:48;;;;;;;;;5.67;2.00;;;;;12.06;76.25;98848.13;6274718;22;45318;-73
2023/03/08 09:04:15;;;;;;;;;1.00;1.00;;;;;12.12;76.04;98866.56;6276669;22;45223;-73
2023/03/08 09:06:41;;;;;;;;;3.00;1.00;;;;;12.07;75.69;98849.84;6276561;22;45160;-73
2023/03/08 09:09:06;;;;;;;;;4.33;2.67;;;;;12.04;75.66;98837.56;6277573;22;45405;-74
2023/03/08 09:11:32;;;;;;;;;2.33;1.00;;;;;12.09;77.19;98843.66;6278340;22;45287;-74
2023/03/08 09:13:57;;;;;;;;;2.00;1.00;;;;;12.16;76.52;98851.53;6276772;22;45764;-74
2023/03/08 09:16:28;;;;;;;;;5.00;2.00;;;;;12.29;76.20;98854.00;6278265;22;45613;-74
2023/03/08 09:18:55;;;;;;;;;2.00;1.00;;;;;12.25;75.82;98833.72;6277514;22;45426;-74
2023/03/08 09:21:21;;;;;;;;;3.00;1.00;;;;;12.46;75.26;98863.47;6277957;22;45260;-74
2023/03/08 09:23:46;;;;;;;;;5.33;2.00;;;;;12.50;76.67;98868.69;6277763;22;45472;-74
2023/03/08 09:26:12;;;;;;;;;1.67;1.00;;;;;12.52;75.40;98864.25;6276348;22;45313;-75
2023/03/08 09:28:37;;;;;;;;;1.00;1.00;;;;;12.56;76.03;98858.91;6277468;22;45233;-74
2023/03/08 09:31:13;;;;;;;;;2.00;1.00;;;;;12.61;75.47;98854.44;6275454;22;46770;-75
2023/03/08 09:33:44;;;;;;;;;1.00;1.00;;;;;12.58;75.29;98849.19;6277810;22;45369;-75
2023/03/08 09:36:10;;;;;;;;;0.67;0.67;;;;;12.70;74.91;98864.88;6278197;22;45259;-75
2023/03/08 09:38:36;;;;;;;;;1.33;1.33;;;;;12.64;75.27;98847.28;6279329;22;45480;-76
2023/03/08 09:41:13;;;;;;;;;1.67;1.00;;;;;12.71;75.78;98862.19;6280228;22;45311;-76
2023/03/08 09:44:16;;;;;;;;;3.33;1.00;;;;;12.74;74.78;98863.91;6281750;22;45356;-77
2023/03/08 09:46:47;;;;;;;;;3.67;0.00;;;;;12.62;75.42;98842.91;6278123;22;45248;-75
2023/03/08 09:49:23;;;;;;;;;1.67;1.00;;;;;12.74;75.00;98861.25;6277717;22;45258;-76
2023/03/08 09:51:56;;;;;;;;;2.33;1.00;;;;;12.69;74.86;98858.72;6277779;22;45257;-74
2023/03/08 09:54:23;;;;;;;;;2.33;1.00;;;;;12.83;75.16;98889.44;6277761;22;45228;-74
2023/03/08 09:56:51;;;;;;;;;2.67;1.00;;;;;12.89;75.11;98884.03;6277639;22;45157;-74
2023/03/08 09:59:27;;;;;;;;;2.67;2.00;;;;;12.86;74.54;98870.81;6275224;22;45389;-76
2023/03/08 10:01:59;;;;;;;;;1.67;1.00;;;;;13.01;74.23;98883.81;6275209;22;47181;-74
2023/03/08 10:04:49;;;;;;;;;1.33;1.00;;;;;13.11;73.93;98890.75;6275560;22;45215;-74
2023/03/08 10:07:44;;;;;;;;;2.00;1.00;;;;;13.16;75.16;98883.59;6277542;22;45295;-73
2023/03/08 10:10:22;;;;;;;;;2.00;2.00;;;;;13.24;73.96;98874.59;6277896;22;45546;-74
2023/03/08 10:12:54;;;;;;;;;2.00;2.00;;;;;13.40;73.49;98895.56;6276783;22;45432;-74
2023/03/08 10:15:22;;;;;;;;;4.00;1.00;;;;;13.53;73.43;98895.34;6277990;22;45251;-74
2023/03/08 10:18:15;;;;;;;;;3.00;1.67;;;;;13.64;73.17;98890.72;6277425;22;45156;-74
2023/03/08 10:20:41;;;;;;;;;1.00;0.00;;;;;13.83;72.93;98896.53;6278112;22;45223;-75
2023/03/08 10:23:19;;;;;;;;;2.67;1.00;;;;;14.05;72.50;98894.34;6279060;22;46152;-74
2023/03/08 10:25:46;;;;;;;;;3.00;1.33;;;;;14.21;71.88;98884.28;6280142;22;45187;-74
2023/03/08 10:28:16;;;;;;;;;2.33;1.00;;;;;14.66;71.39;98877.09;6280352;22;45140;-73
2023/03/08 10:30:44;;;;;;;;;2.33;2.00;;;;;14.94;71.26;98890.59;6279800;22;45298;-76
2023/03/08 10:33:13;;;;;;;;;2.33;1.00;;;;;15.10;69.96;98871.63;6277298;22;45461;-74
2023/03/08 10:35:56;;;;;;;;;1.00;1.00;;;;;15.22;68.80;98890.78;6278272;22;45247;-74
2023/03/08 10:38:24;;;;;;;;;6.00;1.00;;;;;15.29;67.56;98888.88;6277683;22;45311;-74
2023/03/08 10:40:58;;;;;;;;;2.00;1.00;;;;;15.24;67.13;98887.25;6277581;22;45458;-74
2023/03/08 10:43:35;;;;;;;;;2.00;0.00;;;;;15.38;67.26;98903.72;6277063;22;45306;-74
2023/03/08 10:46:24;;;;;;;;;2.00;1.00;;;;;15.44;67.35;98898.25;6277840;22;45353;-74
2023/03/08 10:48:50;;;;;;;;;1.00;0.00;;;;;15.43;66.08;98884.06;6276001;22;45188;-74
2023/03/08 10:51:25;;;;;;;;;0.00;0.00;;;;;15.64;66.46;98898.56;6277676;22;45214;-74
2023/03/08 10:53:56;;;;;;;;;3.00;0.00;;;;;15.76;65.27;98899.19;6277353;22;45291;-74
2023/03/08 10:56:32;;;;;;;;;3.67;0.33;;;;;15.73;64.40;98899.28;6277947;22;45308;-74
2023/03/08 10:58:58;;;;;;;;;2.33;1.00;;;;;15.80;63.72;98906.22;6277228;22;45227;-74
2023/03/08 11:01:27;;;;;;;;;1.00;1.00;;;;;15.90;64.55;98905.00;6278354;22;45292;-74
2023/03/08 11:04:12;;;;;;;;;2.00;0.00;;;;;16.08;64.59;98911.63;6276587;22;46181;-75
2023/03/08 11:06:38;;;;;;;;;1.00;1.00;;;;;16.10;63.74;98924.00;6275412;22;45885;-74
2023/03/08 11:09:19;;;;;;;;;0.00;0.00;;;;;16.04;63.70;98908.16;6277717;22;45325;-74
2023/03/08 11:11:45;;;;;;;;;2.33;0.00;;;;;16.01;63.94;98916.25;6280032;22;45150;-74
2023/03/08 11:14:10;;;;;;;;;0.00;0.00;;;;;15.99;63.91;98917.19;6279445;22;45230;-74
2023/03/08 11:17:18;;;;;;;;;1.00;0.00;;;;;15.92;63.62;98889.00;6277597;22;45440;-74
2023/03/08 11:20:15;;;;;;;;;1.00;1.00;;;;;15.98;64.16;98912.81;6276002;22;45303;-74
2023/03/08 11:23:06;;;;;;;;;1.00;1.00;;;;;15.92;63.38;98907.66;6277439;22;45223;-74
2023/03/08 11:25:59;;;;;;;;;1.67;0.00;;;;;15.87;63.93;98902.44;6277657;22;46124;-74
2023/03/08 11:28:50;;;;;;;;;2.00;0.00;;;;;15.88;63.81;98917.53;6277164;22;45176;-73
2023/03/08 11:31:27;;;;;;;;;1.00;1.00;;;;;15.92;64.22;98920.97;6277150;22;45326;-75
2023/03/08 11:34:27;;;;;;;;;1.00;1.00;;;;;15.81;63.63;98882.16;6277471;22;45215;-75
2023/03/08 11:37:12;;;;;;;;;0.00;0.00;;;;;16.05;63.33;98914.38;6275040;22;47289;-74
2023/03/08 11:39:45;;;;;;;;;1.33;1.00;;;;;16.04;62.73;98924.16;6278078;22;45231;-75
2023/03/08 11:42:45;;;;;;;;;0.00;0.00;;;;;16.02;62.52;98917.13;6275278;22;45191;-75
2023/03/08 11:45:16;;;;;;;;;2.00;1.00;;;;;15.99;62.53;98917.19;6275468;22;45499;-74
2023/03/08 11:48:04;;;;;;;;;0.67;0.00;;;;;15.97;62.43;98925.25;6277281;22;45168;-75
2023/03/08 11:50:46;;;;;;;;;0.00;0.00;;;;;15.94;62.50;98909.34;6259016;22;45278;-74
2023/03/08 11:53:20;;;;;;;;;4.33;3.00;;;;;15.93;62.32;98907.59;6278739;22;45515;-77
2023/03/08 11:56:25;;;;;;;;;5.33;3.67;;;;;16.00;62.49;98895.00;6280592;22;45329;-74
2023/03/08 11:58:53;;;;;;;;;4.33;1.33;;;;;16.11;62.42;98895.56;6278925;22;45361;-74
2023/03/08 12:01:24;;;;;;;;;3.33;1.33;;;;;16.22;62.70;98908.56;6277377;22;45165;-74
2023/03/08 12:03:57;;;;;;;;;0.00;0.00;;;;;16.27;62.93;98894.19;6277196;22;45223;-74
2023/03/08 12:06:28;;;;;;;;;1.00;0.00;;;;;16.38;62.64;98900.97;6277564;22;45154;-75
2023/03/08 12:09:17;;;;;;;;;5.00;2.00;;;;;16.48;62.82;98895.31;6277085;22;45389;-74
2023/03/08 12:11:48;;;;;;;;;2.33;0.67;;;;;16.50;62.71;98896.16;6277253;22;45283;-74
2023/03/08 12:14:21;;;;;;;;;2.00;0.67;;;;;16.59;62.88;98910.16;6300610;22;45371;-74
2023/03/08 12:17:14;;;;;;;;;2.00;1.67;;;;;16.53;62.85;98893.41;6277199;22;45493;-74
2023/03/08 12:19:45;;;;;;;;;1.00;0.00;;;;;16.65;62.93;98904.63;6275222;22;47971;-74
2023/03/08 12:22:38;;;;;;;;;1.00;1.00;;;;;16.70;62.93;98900.88;6277253;22;45302;-74
2023/03/08 12:25:12;;;;;;;;;1.00;0.00;;;;;16.83;62.98;98896.06;6277879;22;45332;-74
2023/03/08 12:27:46;;;;;;;;;0.00;0.00;;;;;16.83;62.93;98909.38;6274084;22;45780;-73
2023/03/08 12:30:15;;;;;;;;;9.67;7.00;;;;;16.74;62.76;98888.31;6276075;22;45303;-73
2023/03/08 12:32:42;;;;;;;;;0.00;0.00;;;;;16.69;62.87;98882.25;6275274;22;45804;-73
2023/03/08 12:35:24;;;;;;;;;1.67;1.67;;;;;16.69;63.17;98879.56;6302398;22;45282;-73
2023/03/08 12:38:03;;;;;;;;;2.00;0.67;;;;;16.67;63.09;98876.09;6279245;22;45312;-74
2023/03/08 12:40:37;;;;;;;;;0.33;0.33;;;;;16.72;62.31;98879.47;6279756;22;46168;-74
2023/03/08 12:43:28;;;;;;;;;1.00;0.00;;;;;16.84;62.85;98876.47;6277293;22;45600;-73
2023/03/08 12:45:56;;;;;;;;;2.00;1.00;;;;;16.87;62.18;98878.16;6278100;22;45282;-74
2023/03/08 12:48:30;;;;;;;;;0.00;0.00;;;;;16.85;61.51;98877.34;6275236;22;45559;-73
2023/03/08 12:51:02;;;;;;;;;0.00;0.00;;;;;16.79;61.30;98873.06;6278289;22;45938;-74
2023/03/08 12:53:33;;;;;;;;;0.00;0.00;;;;;16.69;61.16;98874.22;6275226;22;45337;-74
2023/03/08 12:56:05;;;;;;;;;2.00;0.67;;;;;16.66;61.00;98863.66;6277260;22;45180;-75
2023/03/08 12:58:33;;;;;;;;;0.00;0.00;;;;;16.64;60.45;98857.53;6276641;22;45362;-72
2023/03/08 13:01:02;;;;;;;;;0.00;0.00;;;;;16.72;60.96;98855.47;6276975;22;46152;-73
2023/03/08 13:03:40;;;;;;;;;0.67;0.67;;;;;16.61;60.79;98830.91;6276527;22;45259;-74
2023/03/08 13:06:58;;;;;;;;;0.00;0.00;;;;;16.92;60.72;98854.88;6277344;22;45220;-74
2023/03/08 13:09:32;;;;;;;;;1.00;0.00;;;;;17.00;60.01;98847.50;6271752;22;45425;-75
2023/03/08 13:12:04;;;;;;;;;0.00;0.00;;;;;17.05;59.73;98837.50;6276493;22;45528;-74
2023/03/08 13:14:45;;;;;;;;;0.00;0.00;;;;;17.05;58.94;98850.00;6276774;22;45455;-74
2023/03/08 13:17:29;;;;;;;;;0.67;0.33;;;;;17.06;59.25;98854.44;6277259;22;45231;-75
2023/03/08 13:19:58;;;;;;;;;0.00;0.00;;;;;17.01;59.61;98849.22;6274556;22;45558;-74
2023/03/08 13:22:34;;;;;;;;;2.00;1.00;;;;;16.94;59.52;98848.56;6276433;22;45554;-75
2023/03/08 13:25:07;;;;;;;;;0.00;0.00;;;;;16.88;59.62;98843.41;6278129;22;45372;-75
2023/03/08 13:27:50;;;;;;;;;0.33;0.33;;;;;16.83;59.76;98856.03;6276714;22;45316;-75
2023/03/08 13:30:24;;;;;;;;;1.00;1.00;;;;;16.50;60.36;98815.28;6277758;22;45202;-75
2023/03/08 13:32:50;;;;;;;;;0.33;0.00;;;;;16.60;60.37;98845.19;6277059;22;46006;-75
2023/03/08 13:35:17;;;;;;;;;2.00;0.00;;;;;16.59;60.68;98849.66;6277264;22;45172;-74
2023/03/08 13:37:54;;;;;;;;;1.00;1.00;;;;;16.51;60.63;98835.69;6276825;22;45311;-75
2023/03/08 13:40:21;;;;;;;;;1.00;1.00;;;;;16.42;60.95;98841.31;6276454;22;45377;-75
2023/03/08 13:42:55;;;;;;;;;0.00;0.00;;;;;16.32;61.36;98828.25;6273826;22;45237;-75
2023/03/08 13:45:21;;;;;;;;;0.00;0.00;;;;;16.26;61.48;98831.09;6275053;22;45363;-75
2023/03/08 13:47:47;;;;;;;;;2.00;0.33;;;;;16.28;62.54;98831.06;6276616;22;45434;-75
2023/03/08 13:50:30;;;;;;;;;19.33;16.67;;;;;16.31;62.22;98817.66;6276263;22;45245;-75
2023/03/08 13:52:57;;;;;;;;;0.67;0.67;;;;;16.26;62.70;98812.44;6276202;22;45412;-75
2023/03/08 13:55:34;;;;;;;;;0.00;0.00;;;;;16.21;62.35;98813.50;6277674;22;45094;-75
2023/03/08 13:58:01;;;;;;;;;0.33;0.33;;;;;16.15;62.09;98821.69;6277272;22;45255;-75
2023/03/08 14:00:29;;;;;;;;;0.67;0.00;;;;;16.00;62.64;98802.59;6276432;22;45800;-75
2023/03/08 14:02:56;;;;;;;;;0.00;0.00;;;;;16.02;64.02;98818.50;6278222;22;45341;-76
2023/03/08 14:05:26;;;;;;;;;0.00;0.00;;;;;15.95;63.85;98812.50;6280346;22;45219;-75
2023/03/08 14:08:03;;;;;;;;;0.00;0.00;;;;;15.85;64.04;98816.34;6278683;22;45431;-75
2023/03/08 14:10:44;;;;;;;;;2.00;0.00;;;;;15.72;64.25;98813.16;6277055;22;45757;-75
2023/03/08 14:13:18;;;;;;;;;1.00;0.00;;;;;15.62;64.60;98809.84;6277335;22;45449;-75
2023/03/08 14:15:49;;;;;;;;;0.33;0.33;;;;;15.48;65.35;98797.84;6278389;22;45239;-74
2023/03/08 14:18:36;;;;;;;;;0.67;0.67;;;;;15.52;64.61;98826.16;6277305;22;45265;-75
2023/03/08 14:21:22;;;;;;;;;0.00;0.00;;;;;15.45;65.51;98825.44;6277752;22;45432;-74
2023/03/08 14:23:50;;;;;;;;;0.00;0.00;;;;;15.32;65.46;98826.66;6277356;22;45193;-74
2023/03/08 14:26:27;;;;;;;;;0.00;0.00;;;;;15.20;65.70;98828.72;6277903;22;45393;-74
2023/03/08 14:29:13;;;;;;;;;0.00;0.00;;;;;15.06;65.86;98814.91;6277349;22;45302;-74
2023/03/08 14:31:50;;;;;;;;;0.00;0.00;;;;;14.93;66.60;98814.38;6277942;22;45408;-74
2023/03/08 14:34:25;;;;;;;;;0.00;0.00;;;;;14.77;66.48;98819.19;6277857;22;45318;-74
2023/03/08 14:36:57;;;;;;;;;0.00;0.00;;;;;14.66;69.37;98809.72;6277851;22;45472;-73
2023/03/08 14:39:25;;;;;;;;;0.00;0.00;;;;;14.51;67.77;98800.31;6278088;22;45664;-74
2023/03/08 14:41:52;;;;;;;;;1.00;0.00;;;;;14.44;69.17;98817.31;6277344;22;45385;-74
2023/03/08 14:44:26;;;;;;;;;0.00;0.00;;;;;14.19;68.51;98788.63;6277892;22;45323;-74
2023/03/08 14:46:57;;;;;;;;;1.00;0.00;;;;;14.20;68.40;98830.25;6277663;22;45294;-73
2023/03/08 14:49:25;;;;;;;;;1.00;0.00;;;;;14.07;69.91;98826.09;6277345;22;45342;-73
2023/03/08 14:51:51;;;;;;;;;0.00;0.00;;;;;13.98;70.89;98835.16;6277136;22;46222;-73
2023/03/08 14:54:37;;;;;;;;;2.00;0.00;;;;;13.82;70.40;98813.34;6278179;22;45970;-74
2023/03/08 14:57:22;;;;;;;;;0.33;0.33;;;;;13.81;71.00;98829.31;6275655;22;45239;-72
2023/03/08 14:59:49;;;;;;;;;0.00;0.00;;;;;13.69;71.79;98830.41;6278055;22;45234;-73
2023/03/08 15:02:17;;;;;;;;;2.00;0.00;;;;;13.48;71.41;98810.50;6277894;22;45800;-73
2023/03/08 15:04:44;;;;;;;;;0.00;0.00;;;;;13.54;72.97;98823.66;6277455;22;46315;-73
2023/03/08 15:07:18;;;;;;;;;0.00;0.00;;;;;13.52;70.98;98814.81;6277412;22;45239;-73
2023/03/08 15:09:43;;;;;;;;;2.00;0.00;;;;;13.50;71.35;98810.44;6278108;22;45353;-72
2023/03/08 15:12:10;;;;;;;;;0.33;0.33;;;;;13.47;71.65;98807.84;6277237;22;45372;-72
2023/03/08 15:14:36;;;;;;;;;0.00;0.00;;;;;13.40;72.37;98796.50;6277553;22;45292;-73
2023/03/08 15:17:02;;;;;;;;;0.00;0.00;;;;;13.53;73.83;98818.38;6277073;22;45266;-73
2023/03/08 15:19:27;;;;;;;;;0.00;0.00;;;;;13.57;72.30;98817.41;6278205;22;45293;-73
2023/03/08 15:21:52;;;;;;;;;2.00;2.00;;;;;13.62;72.30;98802.25;6277626;22;45498;-73
2023/03/08 15:24:18;;;;;;;;;2.00;2.00;;;;;13.64;73.26;98789.84;6277752;22;45448;-73
2023/03/08 15:26:44;;;;;;;;;1.00;1.00;;;;;13.72;73.02;98795.84;6277014;22;45176;-73
2023/03/08 15:29:30;;;;;;;;;3.00;1.00;;;;;13.77;72.19;98793.97;6278208;22;45081;-73
2023/03/08 15:31:56;;;;;;;;;3.00;3.00;;;;;13.72;72.24;98781.69;6275177;22;45907;-74
2023/03/08 15:34:22;;;;;;;;;1.00;1.00;;;;;13.80;71.81;98801.88;6277721;22;46211;-75
2023/03/08 15:36:49;;;;;;;;;1.67;1.67;;;;;13.80;73.34;98806.31;6277364;22;45286;-75
2023/03/08 15:39:14;;;;;;;;;6.67;5.67;;;;;13.79;71.52;98785.97;6277661;22;45577;-75
2023/03/08 15:41:40;;;;;;;;;1.00;1.00;;;;;13.83;73.85;98795.63;6277523;22;45576;-75
2023/03/08 15:44:05;;;;;;;;;2.33;1.00;;;;;13.84;73.52;98797.38;6277236;22;46300;-75
2023/03/08 15:46:31;;;;;;;;;3.00;2.00;;;;;13.87;71.95;98811.47;6278145;22;45327;-75
2023/03/08 15:48:56;;;;;;;;;0.00;0.00;;;;;13.84;71.83;98806.22;6277714;22;45208;-75
2023/03/08 15:51:27;;;;;;;;;2.33;1.33;;;;;13.83;71.62;98815.06;6277935;22;46390;-75
2023/03/08 15:53:53;;;;;;;;;7.00;6.67;;;;;13.73;72.68;98805.56;6277507;22;45322;-75
2023/03/08 15:56:18;;;;;;;;;2.00;1.00;;;;;13.68;71.36;98788.84;6278112;22;45286;-75
2023/03/08 15:58:43;;;;;;;;;0.00;0.00;;;;;13.75;71.33;98819.69;6277317;22;45228;-76
2023/03/08 16:01:10;;;;;;;;;1.00;1.00;;;;;13.77;71.32;98835.59;6278141;22;45289;-75
2023/03/08 16:03:37;;;;;;;;;0.00;0.00;;;;;13.74;71.09;98844.50;6274772;22;47262;-75
2023/03/08 16:06:08;;;;;;;;;0.00;0.00;;;;;13.57;71.20;98812.97;6277176;22;45257;-75
2023/03/08 16:08:34;;;;;;;;;2.67;0.00;;;;;13.65;71.59;98837.59;6277623;22;45392;-75
2023/03/08 16:11:02;;;;;;;;;0.67;0.67;;;;;13.54;70.98;98828.94;6276773;22;45461;-75
2023/03/08 16:13:28;;;;;;;;;0.00;0.00;;;;;13.57;71.26;98854.56;6277166;22;45247;-76
2023/03/08 16:15:57;;;;;;;;;1.00;1.00;;;;;13.52;71.02;98852.00;6277448;22;45328;-75
2023/03/08 16:18:22;;;;;;;;;1.00;1.00;;;;;13.47;71.31;98853.88;6277555;22;45212;-75
2023/03/08 16:20:48;;;;;;;;;1.00;1.00;;;;;13.43;72.29;98850.38;6278727;22;49631;-75
2023/03/08 16:23:13;;;;;;;;;1.00;1.00;;;;;13.38;72.15;98856.69;6277459;22;45207;-75
2023/03/08 16:25:41;;;;;;;;;1.67;0.67;;;;;13.30;72.55;98853.28;6279236;22;45309;-75
2023/03/08 16:28:06;;;;;;;;;3.33;2.00;;;;;13.33;73.20;98859.44;6278029;22;45282;-74
2023/03/08 16:30:32;;;;;;;;;4.00;3.00;;;;;13.14;71.90;98837.63;6277682;22;45235;-74
2023/03/08 16:32:57;;;;;;;;;6.00;5.00;;;;;13.11;75.09;98858.91;6277101;22;46222;-74
2023/03/08 16:35:23;;;;;;;;;5.00;4.00;;;;;12.96;82.97;98860.00;6277745;22;45236;-75
2023/03/08 16:37:48;;;;;;;;;3.67;1.33;;;;;12.87;80.61;98854.00;6277274;22;45899;-74
2023/03/08 16:40:14;;;;;;;;;8.33;7.33;;;;;12.83;81.37;98797.50;6277248;22;53735;-74
2023/03/08 16:42:39;;;;;;;;;6.33;6.33;;;;;12.80;78.06;98786.06;6276366;22;45192;-74
2023/03/08 16:45:05;;;;;;;;;1.00;1.00;;;;;12.79;75.04;98808.19;6277734;22;45216;-73
2023/03/08 16:47:31;;;;;;;;;0.00;0.00;;;;;12.75;74.45;98794.09;6277001;22;45176;-73
2023/03/08 16:49:59;;;;;;;;;0.00;0.00;;;;;12.76;76.65;98814.41;6277482;22;45460;-74
2023/03/08 16:52:24;;;;;;;;;3.00;3.00;;;;;12.70;74.85;98819.81;6276492;22;45667;-74
2023/03/08 16:54:50;;;;;;;;;12.67;7.67;;;;;12.72;74.83;98818.88;6275490;22;45257;-73
2023/03/08 16:57:16;;;;;;;;;2.00;2.00;;;;;12.74;75.56;98810.91;6276038;22;45309;-74
2023/03/08 16:59:42;;;;;;;;;9.33;8.00;;;;;12.72;76.20;98821.53;6276728;22;46194;-74
2023/03/08 17:02:16;;;;;;;;;5.00;4.00;;;;;12.73;76.08;98817.97;6274845;22;46896;-75
2023/03/08 17:04:42;;;;;;;;;6.00;4.67;;;;;12.74;75.56;98821.50;6277428;22;45275;-74
2023/03/08 17:07:09;;;;;;;;;7.33;7.33;;;;;12.71;75.48;98814.47;6277049;22;45275;-74
2023/03/08 17:09:35;;;;;;;;;9.00;5.67;;;;;12.74;75.55;98822.41;6277611;22;45175;-74
2023/03/08 17:12:00;;;;;;;;;2.33;1.67;;;;;12.73;75.48;98830.38;6276439;22;45410;-74
2023/03/08 17:14:26;;;;;;;;;2.00;2.00;;;;;12.71;75.50;98833.03;6276546;22;45172;-73
2023/03/08 17:16:51;;;;;;;;;2.00;2.00;;;;;12.71;76.28;98803.88;6277051;22;45105;-73
2023/03/08 17:19:16;;;;;;;;;1.00;1.00;;;;;12.62;74.78;98789.91;6275132;22;46866;-73
2023/03/08 17:21:42;;;;;;;;;1.00;1.00;;;;;12.64;74.80;98802.22;6274197;22;46869;-73
2023/03/08 17:24:11;;;;;;;;;0.67;0.67;;;;;12.48;75.14;98798.94;6276543;22;45292;-73
2023/03/08 17:26:42;;;;;;;;;5.33;5.33;;;;;12.59;74.49;98825.28;6274857;22;45292;-74
2023/03/08 17:29:07;;;;;;;;;14.50;14.50;;;;;12.53;74.31;98826.25;6276639;22;45309;-74
2023/03/08 17:31:33;;;;;;;;;27.50;22.00;;;;;12.49;73.73;98826.31;6278517;22;45539;-74
2023/03/08 17:33:58;;;;;;;;;27.00;21.25;;;;;12.45;74.27;98820.19;6277973;22;45282;-74
2023/03/08 17:36:24;;;;;;;;;26.75;23.25;;;;;12.44;74.94;98820.22;6278466;22;45199;-74
2023/03/08 17:38:54;;;;;;;;;36.50;31.25;;;;;12.47;74.28;98826.34;6277856;22;45369;-74
2023/03/08 17:41:20;;;;;;;;;17.25;13.00;;;;;12.38;74.76;98826.50;6277983;22;45837;-74
2023/03/08 17:43:45;;;;;;;;;21.00;20.25;;;;;12.32;75.68;98822.16;6276923;22;45098;-74
2023/03/08 17:46:17;;;;;;;;;14.75;13.25;;;;;12.40;74.12;98826.47;6278291;22;45695;-74
2023/03/08 17:48:43;;;;;;;;;32.25;30.25;;;;;12.24;75.04;98805.50;6277411;22;45239;-74
2023/03/08 17:51:11;;;;;;;;;12.00;12.00;;;;;12.41;73.87;98830.88;6276253;22;45953;-74
2023/03/08 17:53:37;;;;;;;;;19.25;17.00;;;;;12.40;75.45;98818.50;6277528;22;45222;-74
2023/03/08 17:56:17;;;;;;;;;19.25;18.25;;;;;12.29;74.85;98800.13;6278219;22;45172;-74
2023/03/08 17:58:43;;;;;;;;;28.50;26.25;;;;;12.38;75.01;98809.69;6277589;22;45229;-74
2023/03/08 18:01:16;;;;;;;;;9.75;9.25;;;;;12.36;74.94;98809.75;6278095;22;46040;-75
2023/03/08 18:03:42;;;;;;;;;7.00;6.00;;;;;12.34;74.90;98802.72;6275839;22;45319;-74
2023/03/08 18:06:32;;;;;;;;;12.50;8.75;;;;;12.36;75.44;98807.09;6278619;22;45224;-74
2023/03/08 18:09:00;;;;;;;;;20.00;20.00;;;;;12.30;76.62;98796.59;6277362;22;45519;-74
2023/03/08 18:11:26;;;;;;;;;20.75;20.00;;;;;12.32;75.87;98800.06;6278233;22;45383;-75
2023/03/08 18:13:52;;;;;;;;;9.00;7.75;;;;;12.27;75.14;98794.88;6276919;22;45388;-77
2023/03/08 18:16:20;;;;;;;;;14.00;13.25;;;;;12.36;76.22;98806.22;6278855;22;45267;-76
2023/03/08 18:18:48;;;;;;;;;12.00;12.00;;;;;12.20;75.34;98782.59;6277747;22;45323;-76
2023/03/08 18:21:17;;;;;;;;;14.25;11.25;;;;;12.35;76.20;98800.06;6278200;22;45585;-76
2023/03/08 18:23:43;;;;;;;;;4.33;3.00;;;;;12.40;75.42;98805.25;6277437;22;45305;-76
2023/03/08 18:26:13;;;;;;;;;11.75;8.75;;;;;12.35;77.34;98794.75;6278666;22;45184;-76
2023/03/08 18:28:39;;;;;;;;;16.25;14.50;;;;;12.40;76.59;98797.31;6276962;22;45221;-76
2023/03/08 18:31:11;;;;;;;;;17.50;15.50;;;;;12.42;74.57;98808.78;6276411;22;46272;-75
2023/03/08 18:33:36;;;;;;;;;11.00;9.00;;;;;12.35;75.08;98793.84;6278468;22;45338;-76
2023/03/08 18:36:02;;;;;;;;;10.67;9.00;;;;;12.46;74.89;98811.38;6280094;22;45165;-75
2023/03/08 18:38:28;;;;;;;;;16.50;15.25;;;;;12.42;75.94;98799.03;6278978;22;45237;-75
2023/03/08 18:40:53;;;;;;;;;9.00;8.00;;;;;12.48;74.95;98809.53;6278329;22;45529;-76
2023/03/08 18:43:18;;;;;;;;;22.00;17.00;;;;;12.39;76.05;98806.16;6277733;22;45297;-76
2023/03/08 18:45:51;;;;;;;;;7.00;5.67;;;;;12.47;75.18;98812.22;6278842;22;45508;-76
2023/03/08 18:48:16;;;;;;;;;14.67;12.00;;;;;12.50;75.71;98823.66;6276044;22;46088;-76
2023/03/08 18:50:43;;;;;;;;;14.00;14.00;;;;;12.52;74.11;98827.16;6278237;22;45168;-75
2023/03/08 18:53:11;;;;;;;;;6.33;5.33;;;;;12.38;74.76;98800.00;6277776;22;45279;-75
2023/03/08 18:55:37;;;;;;;;;11.00;10.00;;;;;12.54;75.99;98833.28;6278443;22;45089;-76
2023/03/08 18:58:02;;;;;;;;;7.33;6.00;;;;;12.58;75.58;98825.31;6277548;22;45225;-76
2023/03/08 19:00:27;;;;;;;;;11.00;9.00;;;;;12.54;75.09;98813.88;6278345;22;45250;-76
2023/03/08 19:02:53;;;;;;;;;8.67;8.67;;;;;12.62;74.68;98821.72;6278283;22;45328;-76
2023/03/08 19:05:18;;;;;;;;;7.75;7.00;;;;;12.54;75.70;98811.22;6278642;22;45470;-76
2023/03/08 19:07:45;;;;;;;;;9.25;9.25;;;;;12.62;75.07;98817.28;6277866;22;45418;-75
2023/03/08 19:10:13;;;;;;;;;10.33;8.67;;;;;12.66;75.11;98819.00;6278289;22;45173;-76
2023/03/08 19:12:40;;;;;;;;;11.00;9.75;;;;;12.56;74.86;98805.91;6277479;22;45382;-76
2023/03/08 19:15:06;;;;;;;;;10.67;9.67;;;;;12.70;75.54;98819.81;6279436;22;45302;-77
2023/03/08 19:17:31;;;;;;;;;22.25;12.25;;;;;12.71;73.76;98821.56;6279859;22;45299;-77
2023/03/08 19:19:56;;;;;;;;;22.00;18.50;;;;;12.69;74.25;98802.16;6278757;22;46039;-76
2023/03/08 19:22:22;;;;;;;;;29.00;21.75;;;;;12.71;74.12;98808.31;6279046;22;45232;-76
2023/03/08 19:24:47;;;;;;;;;11.00;9.00;;;;;12.71;74.66;98810.94;6278246;22;45168;-76
2023/03/08 19:27:12;;;;;;;;;6.67;4.67;;;;;12.75;74.91;98810.88;6277578;22;45217;-77
2023/03/08 19:29:38;;;;;;;;;10.67;7.00;;;;;12.76;74.74;98806.44;6278198;22;45331;-76
2023/03/08 19:32:06;;;;;;;;;7.00;4.33;;;;;12.75;74.26;98796.75;6278258;22;45307;-76
2023/03/08 19:34:43;;;;;;;;;15.75;12.75;;;;;12.78;74.12;98809.97;6278568;22;45221;-76
2023/03/08 19:37:12;;;;;;;;;11.67;7.00;;;;;12.77;74.62;98801.13;6277410;22;45289;-76
2023/03/08 19:39:38;;;;;;;;;9.00;5.67;;;;;12.83;73.89;98797.50;6277690;22;46116;-75
2023/03/08 19:42:06;;;;;;;;;9.33;4.00;;;;;12.73;73.87;98780.88;6277464;22;45247;-76
2023/03/08 19:44:32;;;;;;;;;14.50;13.00;;;;;12.76;73.69;98775.50;6277907;22;45216;-76
2023/03/08 19:46:59;;;;;;;;;13.00;12.00;;;;;12.77;74.01;98789.63;6277676;22;45443;-76
2023/03/08 19:49:28;;;;;;;;;12.33;9.00;;;;;12.85;74.27;98793.03;6277515;22;47060;-76
2023/03/08 19:51:54;;;;;;;;;22.50;19.00;;;;;12.85;74.12;98787.72;6276942;22;45611;-76
2023/03/08 19:54:21;;;;;;;;;16.75;13.25;;;;;12.87;74.23;98791.25;6277972;22;45272;-76
2023/03/08 19:56:47;;;;;;;;;11.33;8.00;;;;;12.85;73.65;98787.72;6277919;22;45419;-75
2023/03/08 19:59:12;;;;;;;;;7.00;7.00;;;;;12.89;73.56;98789.44;6280028;22;45413;-75
2023/03/08 20:01:38;;;;;;;;;8.75;8.75;;;;;12.89;73.72;98784.13;6277972;22;45267;-76